sensor_id;sensor_type;location;lat;lon;timestamp;temperature;humidity
1996;DHT22;38556;47.068;15.408;2022-10-31T00:01:46;14.40;99.90
1996;DHT22;38556;47.068;15.408;2022-10-31T00:04:14;14.40;99.90
1996;DHT22;38556;47.068;15.408;2022-10-31T00:09:10;14.40;99.90
1996;DHT22;38556;47.068;15.408;2022-10-31T00:11:37;14.40;99.90
1996;DHT22;38556;47.068;15.408;2022-10-31T00:14:05;14.30;99.90
1996;DHT22;38556;47.068;15.408;2022-10-31T00:16:33;14.30;99.90
1996;DHT22;38556;47.068;15.408;2022-10-31T00:19:02;14.20;99.90
1996;DHT22;38556;47.068;15.408;2022-10-31T00:21:31;14.30;99.90
1996;DHT22;38556;47.068;15.408;2022-10-31T00:23:59;14.20;99.90
1996;DHT22;38556;47.068;15.408;2022-10-31T00:26:27;14.20;99.90
1996;DHT22;38556;47.068;15.408;2022-10-31T00:28:54;14.20;99.90
1996;DHT22;38556;47.068;15.408;2022-10-31T00:31:23;14.20;99.90
1996;DHT22;38556;47.068;15.408;2022-10-31T00:33:50;14.10;99.90
1996;DHT22;38556;47.068;15.408;2022-10-31T00:36:19;14.10;99.90
1996;DHT22;38556;47.068;15.408;2022-10-31T00:38:47;14.10;99.90
1996;DHT22;38556;47.068;15.408;2022-10-31T00:41:15;14.10;99.90
1996;DHT22;38556;47.068;15.408;2022-10-31T00:43:43;14.10;99.90
1996;DHT22;38556;47.068;15.408;2022-10-31T00:46:11;14.10;99.90
1996;DHT22;38556;47.068;15.408;2022-10-31T00:48:40;14.10;99.90
1996;DHT22;38556;47.068;15.408;2022-10-31T00:51:07;14.10;99.90
1996;DHT22;38556;47.068;15.408;2022-10-31T00:53:35;14.10;99.90
1996;DHT22;38556;47.068;15.408;2022-10-31T00:56:03;14.00;99.90
1996;DHT22;38556;47.068;15.408;2022-10-31T00:58:30;14.00;99.90
1996;DHT22;38556;47.068;15.408;2022-10-31T01:03:28;14.00;99.90
1996;DHT22;38556;47.068;15.408;2022-10-31T01:06:02;13.90;99.90
1996;DHT22;38556;47.068;15.408;2022-10-31T01:08:31;13.90;99.90
1996;DHT22;38556;47.068;15.408;2022-10-31T01:11:00;13.90;99.90
1996;DHT22;38556;47.068;15.408;2022-10-31T01:13:27;13.80;99.90
1996;DHT22;38556;47.068;15.408;2022-10-31T01:15:55;13.80;99.90
1996;DHT22;38556;47.068;15.408;2022-10-31T01:18:22;13.80;99.90
1996;DHT22;38556;47.068;15.408;2022-10-31T01:20:58;13.80;99.90
1996;DHT22;38556;47.068;15.408;2022-10-31T01:23:28;13.70;99.90
1996;DHT22;38556;47.068;15.408;2022-10-31T01:26:03;13.70;99.90
1996;DHT22;38556;47.068;15.408;2022-10-31T01:28:32;13.70;99.90
1996;DHT22;38556;47.068;15.408;2022-10-31T01:31:05;13.70;99.90
1996;DHT22;38556;47.068;15.408;2022-10-31T01:36:00;13.60;99.90
1996;DHT22;38556;47.068;15.408;2022-10-31T01:38:28;13.60;99.90
1996;DHT22;38556;47.068;15.408;2022-10-31T01:40:57;13.60;99.90
1996;DHT22;38556;47.068;15.408;2022-10-31T01:43:45;13.60;99.90
1996;DHT22;38556;47.068;15.408;2022-10-31T01:46:14;13.60;99.90
1996;DHT22;38556;47.068;15.408;2022-10-31T01:48:42;13.60;99.90
1996;DHT22;38556;47.068;15.408;2022-10-31T01:51:11;13.50;99.90
1996;DHT22;38556;47.068;15.408;2022-10-31T01:53:42;13.50;99.90
1996;DHT22;38556;47.068;15.408;2022-10-31T01:56:13;13.50;99.90
1996;DHT22;38556;47.068;15.408;2022-10-31T01:58:40;13.50;99.90
1996;DHT22;38556;47.068;15.408;2022-10-31T02:01:09;13.50;99.90
1996;DHT22;38556;47.068;15.408;2022-10-31T02:03:36;13.40;99.90
1996;DHT22;38556;47.068;15.408;2022-10-31T02:06:07;13.40;99.90
1996;DHT22;38556;47.068;15.408;2022-10-31T02:08:35;13.40;99.90
1996;DHT22;38556;47.068;15.408;2022-10-31T02:11:06;13.40;99.90
1996;DHT22;38556;47.068;15.408;2022-10-31T02:13:34;13.30;99.90
1996;DHT22;38556;47.068;15.408;2022-10-31T02:16:01;13.30;99.90
1996;DHT22;38556;47.068;15.408;2022-10-31T02:18:30;13.30;99.90
1996;DHT22;38556;47.068;15.408;2022-10-31T02:21:03;13.20;99.90
1996;DHT22;38556;47.068;15.408;2022-10-31T02:26:58;13.20;99.90
1996;DHT22;38556;47.068;15.408;2022-10-31T02:30:05;13.10;99.90
1996;DHT22;38556;47.068;15.408;2022-10-31T02:32:48;13.10;99.90
1996;DHT22;38556;47.068;15.408;2022-10-31T02:35:37;13.10;99.90
1996;DHT22;38556;47.068;15.408;2022-10-31T02:38:14;13.10;99.90
1996;DHT22;38556;47.068;15.408;2022-10-31T02:40:50;13.00;99.90
1996;DHT22;38556;47.068;15.408;2022-10-31T02:43:21;13.00;99.90
1996;DHT22;38556;47.068;15.408;2022-10-31T02:45:58;12.90;99.90
1996;DHT22;38556;47.068;15.408;2022-10-31T02:48:28;12.90;99.90
1996;DHT22;38556;47.068;15.408;2022-10-31T02:50:59;12.80;99.90
1996;DHT22;38556;47.068;15.408;2022-10-31T02:53:31;12.80;99.90
1996;DHT22;38556;47.068;15.408;2022-10-31T02:56:02;12.80;99.90
1996;DHT22;38556;47.068;15.408;2022-10-31T02:58:34;12.80;99.90
1996;DHT22;38556;47.068;15.408;2022-10-31T03:01:22;12.80;99.90
1996;DHT22;38556;47.068;15.408;2022-10-31T03:04:06;12.70;99.90
1996;DHT22;38556;47.068;15.408;2022-10-31T03:06:43;12.60;99.90
1996;DHT22;38556;47.068;15.408;2022-10-31T03:09:22;12.50;99.90
1996;DHT22;38556;47.068;15.408;2022-10-31T03:11:56;12.40;99.90
1996;DHT22;38556;47.068;15.408;2022-10-31T03:14:30;12.50;99.90
1996;DHT22;38556;47.068;15.408;2022-10-31T03:17:01;12.50;99.90
1996;DHT22;38556;47.068;15.408;2022-10-31T03:19:35;12.50;99.90
1996;DHT22;38556;47.068;15.408;2022-10-31T03:22:10;12.60;99.90
1996;DHT22;38556;47.068;15.408;2022-10-31T03:27:12;12.60;99.90
1996;DHT22;38556;47.068;15.408;2022-10-31T03:29:44;12.50;99.90
1996;DHT22;38556;47.068;15.408;2022-10-31T03:32:14;12.60;99.90
1996;DHT22;38556;47.068;15.408;2022-10-31T03:34:45;12.50;99.90
1996;DHT22;38556;47.068;15.408;2022-10-31T03:37:17;12.60;99.90
1996;DHT22;38556;47.068;15.408;2022-10-31T03:39:47;12.50;99.90
1996;DHT22;38556;47.068;15.408;2022-10-31T03:42:18;12.60;99.90
1996;DHT22;38556;47.068;15.408;2022-10-31T03:44:53;12.50;99.90
1996;DHT22;38556;47.068;15.408;2022-10-31T03:47:21;12.40;99.90
1996;DHT22;38556;47.068;15.408;2022-10-31T03:49:51;12.40;99.90
1996;DHT22;38556;47.068;15.408;2022-10-31T03:52:23;12.40;99.90
1996;DHT22;38556;47.068;15.408;2022-10-31T03:54:56;12.40;99.90
1996;DHT22;38556;47.068;15.408;2022-10-31T03:57:27;12.40;99.90
1996;DHT22;38556;47.068;15.408;2022-10-31T04:00:00;12.40;99.90
1996;DHT22;38556;47.068;15.408;2022-10-31T04:02:30;12.30;99.90
1996;DHT22;38556;47.068;15.408;2022-10-31T04:05:02;12.30;99.90
1996;DHT22;38556;47.068;15.408;2022-10-31T04:07:31;12.30;99.90
1996;DHT22;38556;47.068;15.408;2022-10-31T04:10:02;12.30;99.90
1996;DHT22;38556;47.068;15.408;2022-10-31T04:12:32;12.20;99.90
1996;DHT22;38556;47.068;15.408;2022-10-31T04:15:03;12.30;99.90
1996;DHT22;38556;47.068;15.408;2022-10-31T04:17:33;12.20;99.90
1996;DHT22;38556;47.068;15.408;2022-10-31T04:20:04;12.20;99.90
1996;DHT22;38556;47.068;15.408;2022-10-31T04:22:32;12.20;99.90
1996;DHT22;38556;47.068;15.408;2022-10-31T04:24:59;12.20;99.90
1996;DHT22;38556;47.068;15.408;2022-10-31T04:27:27;12.20;99.90
1996;DHT22;38556;47.068;15.408;2022-10-31T04:29:55;12.20;99.90
1996;DHT22;38556;47.068;15.408;2022-10-31T04:32:22;12.20;99.90
1996;DHT22;38556;47.068;15.408;2022-10-31T04:34:49;12.20;99.90
1996;DHT22;38556;47.068;15.408;2022-10-31T04:37:18;12.20;99.90
1996;DHT22;38556;47.068;15.408;2022-10-31T04:39:45;12.20;99.90
1996;DHT22;38556;47.068;15.408;2022-10-31T04:42:12;12.20;99.90
1996;DHT22;38556;47.068;15.408;2022-10-31T04:44:39;12.20;99.90
1996;DHT22;38556;47.068;15.408;2022-10-31T04:47:06;12.20;99.90
1996;DHT22;38556;47.068;15.408;2022-10-31T04:49:34;12.20;99.90
1996;DHT22;38556;47.068;15.408;2022-10-31T04:52:01;12.20;99.90
1996;DHT22;38556;47.068;15.408;2022-10-31T04:54:30;12.20;99.90
1996;DHT22;38556;47.068;15.408;2022-10-31T04:56:57;12.10;99.90
1996;DHT22;38556;47.068;15.408;2022-10-31T04:59:25;12.10;99.90
1996;DHT22;38556;47.068;15.408;2022-10-31T05:01:52;12.20;99.90
1996;DHT22;38556;47.068;15.408;2022-10-31T05:04:19;12.20;99.90
1996;DHT22;38556;47.068;15.408;2022-10-31T05:06:46;12.20;99.90
1996;DHT22;38556;47.068;15.408;2022-10-31T05:09:14;12.10;99.90
1996;DHT22;38556;47.068;15.408;2022-10-31T05:11:43;12.10;99.90
1996;DHT22;38556;47.068;15.408;2022-10-31T05:14:10;12.10;99.90
1996;DHT22;38556;47.068;15.408;2022-10-31T05:16:37;12.10;99.90
1996;DHT22;38556;47.068;15.408;2022-10-31T05:19:05;12.00;99.90
1996;DHT22;38556;47.068;15.408;2022-10-31T05:21:32;12.10;99.90
1996;DHT22;38556;47.068;15.408;2022-10-31T05:24:00;12.00;99.90
1996;DHT22;38556;47.068;15.408;2022-10-31T05:26:27;11.90;99.90
1996;DHT22;38556;47.068;15.408;2022-10-31T05:28:55;11.80;99.90
1996;DHT22;38556;47.068;15.408;2022-10-31T05:31:23;11.90;99.90
1996;DHT22;38556;47.068;15.408;2022-10-31T05:33:50;11.80;99.90
1996;DHT22;38556;47.068;15.408;2022-10-31T05:36:17;11.90;99.90
1996;DHT22;38556;47.068;15.408;2022-10-31T05:38:45;11.90;99.90
1996;DHT22;38556;47.068;15.408;2022-10-31T05:41:12;11.90;99.90
1996;DHT22;38556;47.068;15.408;2022-10-31T05:43:39;11.90;99.90
1996;DHT22;38556;47.068;15.408;2022-10-31T05:46:08;12.00;99.90
1996;DHT22;38556;47.068;15.408;2022-10-31T05:48:35;12.00;99.90
1996;DHT22;38556;47.068;15.408;2022-10-31T05:51:03;12.00;99.90
1996;DHT22;38556;47.068;15.408;2022-10-31T05:53:30;12.00;99.90
1996;DHT22;38556;47.068;15.408;2022-10-31T05:55:58;12.00;99.90
1996;DHT22;38556;47.068;15.408;2022-10-31T05:58:25;12.00;99.90
1996;DHT22;38556;47.068;15.408;2022-10-31T06:00:53;12.00;99.90
1996;DHT22;38556;47.068;15.408;2022-10-31T06:03:21;12.00;99.90
1996;DHT22;38556;47.068;15.408;2022-10-31T06:08:16;12.00;99.90
1996;DHT22;38556;47.068;15.408;2022-10-31T06:10:44;12.00;99.90
1996;DHT22;38556;47.068;15.408;2022-10-31T06:13:11;12.00;99.90
1996;DHT22;38556;47.068;15.408;2022-10-31T06:15:40;12.00;99.90
1996;DHT22;38556;47.068;15.408;2022-10-31T06:18:08;12.00;99.90
1996;DHT22;38556;47.068;15.408;2022-10-31T06:20:37;12.00;99.90
1996;DHT22;38556;47.068;15.408;2022-10-31T06:23:04;12.00;99.90
1996;DHT22;38556;47.068;15.408;2022-10-31T06:25:32;12.00;99.90
1996;DHT22;38556;47.068;15.408;2022-10-31T06:27:59;12.10;99.90
1996;DHT22;38556;47.068;15.408;2022-10-31T06:30:27;12.10;99.90
1996;DHT22;38556;47.068;15.408;2022-10-31T06:32:54;12.10;99.90
1996;DHT22;38556;47.068;15.408;2022-10-31T06:35:22;12.10;99.90
1996;DHT22;38556;47.068;15.408;2022-10-31T06:37:54;12.20;99.90
1996;DHT22;38556;47.068;15.408;2022-10-31T06:40:22;12.20;99.90
1996;DHT22;38556;47.068;15.408;2022-10-31T06:42:56;12.20;99.90
1996;DHT22;38556;47.068;15.408;2022-10-31T06:45:24;12.30;99.90
1996;DHT22;38556;47.068;15.408;2022-10-31T06:47:52;12.40;99.90
1996;DHT22;38556;47.068;15.408;2022-10-31T06:50:20;12.50;99.90
1996;DHT22;38556;47.068;15.408;2022-10-31T06:52:53;12.60;99.90
1996;DHT22;38556;47.068;15.408;2022-10-31T06:55:21;12.60;99.90
1996;DHT22;38556;47.068;15.408;2022-10-31T06:57:51;12.70;99.90
1996;DHT22;38556;47.068;15.408;2022-10-31T07:00:20;12.70;99.90
1996;DHT22;38556;47.068;15.408;2022-10-31T07:02:57;12.80;99.90
1996;DHT22;38556;47.068;15.408;2022-10-31T07:05:25;12.80;99.90
1996;DHT22;38556;47.068;15.408;2022-10-31T07:07:54;12.90;99.90
1996;DHT22;38556;47.068;15.408;2022-10-31T07:10:24;12.90;99.90
1996;DHT22;38556;47.068;15.408;2022-10-31T07:12:54;13.00;99.90
1996;DHT22;38556;47.068;15.408;2022-10-31T07:15:22;12.90;99.90
1996;DHT22;38556;47.068;15.408;2022-10-31T07:17:49;13.10;99.90
1996;DHT22;38556;47.068;15.408;2022-10-31T07:20:17;13.10;99.90
1996;DHT22;38556;47.068;15.408;2022-10-31T07:22:45;13.10;99.90
1996;DHT22;38556;47.068;15.408;2022-10-31T07:25:13;13.20;99.90
1996;DHT22;38556;47.068;15.408;2022-10-31T07:27:42;13.20;99.90
1996;DHT22;38556;47.068;15.408;2022-10-31T07:30:11;13.20;99.90
1996;DHT22;38556;47.068;15.408;2022-10-31T07:32:39;13.30;99.90
1996;DHT22;38556;47.068;15.408;2022-10-31T07:35:07;13.30;99.90
1996;DHT22;38556;47.068;15.408;2022-10-31T07:37:35;13.50;99.90
1996;DHT22;38556;47.068;15.408;2022-10-31T07:40:02;13.50;99.90
1996;DHT22;38556;47.068;15.408;2022-10-31T07:42:35;13.60;99.90
1996;DHT22;38556;47.068;15.408;2022-10-31T07:45:04;13.70;99.90
1996;DHT22;38556;47.068;15.408;2022-10-31T07:47:38;13.80;99.90
1996;DHT22;38556;47.068;15.408;2022-10-31T07:50:06;13.90;99.90
1996;DHT22;38556;47.068;15.408;2022-10-31T07:52:33;13.90;99.90
1996;DHT22;38556;47.068;15.408;2022-10-31T07:55:01;14.00;99.90
1996;DHT22;38556;47.068;15.408;2022-10-31T07:57:28;14.10;99.90
1996;DHT22;38556;47.068;15.408;2022-10-31T07:59:57;14.10;99.90
1996;DHT22;38556;47.068;15.408;2022-10-31T08:02:25;14.20;99.90
1996;DHT22;38556;47.068;15.408;2022-10-31T08:04:52;14.20;99.90
1996;DHT22;38556;47.068;15.408;2022-10-31T08:07:21;14.30;99.90
1996;DHT22;38556;47.068;15.408;2022-10-31T08:09:48;14.40;99.90
1996;DHT22;38556;47.068;15.408;2022-10-31T08:12:16;14.40;99.90
1996;DHT22;38556;47.068;15.408;2022-10-31T08:14:43;14.50;99.90
1996;DHT22;38556;47.068;15.408;2022-10-31T08:17:12;14.50;99.90
1996;DHT22;38556;47.068;15.408;2022-10-31T08:19:39;14.60;99.90
1996;DHT22;38556;47.068;15.408;2022-10-31T08:22:07;14.70;99.90
1996;DHT22;38556;47.068;15.408;2022-10-31T08:24:34;14.70;99.90
1996;DHT22;38556;47.068;15.408;2022-10-31T08:27:02;14.70;99.90
1996;DHT22;38556;47.068;15.408;2022-10-31T08:29:29;14.70;99.90
1996;DHT22;38556;47.068;15.408;2022-10-31T08:32:05;14.80;99.90
1996;DHT22;38556;47.068;15.408;2022-10-31T08:34:33;14.80;99.90
1996;DHT22;38556;47.068;15.408;2022-10-31T08:37:01;15.00;99.90
1996;DHT22;38556;47.068;15.408;2022-10-31T08:39:28;15.00;99.90
1996;DHT22;38556;47.068;15.408;2022-10-31T08:41:56;15.10;99.90
1996;DHT22;38556;47.068;15.408;2022-10-31T08:44:23;15.20;99.90
1996;DHT22;38556;47.068;15.408;2022-10-31T08:46:51;15.30;99.90
1996;DHT22;38556;47.068;15.408;2022-10-31T08:49:18;15.40;99.90
1996;DHT22;38556;47.068;15.408;2022-10-31T08:51:48;15.50;99.90
1996;DHT22;38556;47.068;15.408;2022-10-31T08:54:16;15.50;99.90
1996;DHT22;38556;47.068;15.408;2022-10-31T08:56:43;15.60;99.90
1996;DHT22;38556;47.068;15.408;2022-10-31T08:59:11;15.60;99.90
1996;DHT22;38556;47.068;15.408;2022-10-31T09:01:38;15.70;99.90
1996;DHT22;38556;47.068;15.408;2022-10-31T09:04:06;15.80;99.90
1996;DHT22;38556;47.068;15.408;2022-10-31T09:09:02;16.00;99.90
1996;DHT22;38556;47.068;15.408;2022-10-31T09:11:30;16.00;99.90
1996;DHT22;38556;47.068;15.408;2022-10-31T09:13:58;16.20;99.90
1996;DHT22;38556;47.068;15.408;2022-10-31T09:16:25;16.20;99.90
1996;DHT22;38556;47.068;15.408;2022-10-31T09:18:53;16.40;99.90
1996;DHT22;38556;47.068;15.408;2022-10-31T09:21:21;16.40;99.90
1996;DHT22;38556;47.068;15.408;2022-10-31T09:23:48;16.40;99.90
1996;DHT22;38556;47.068;15.408;2022-10-31T09:26:17;16.40;99.90
1996;DHT22;38556;47.068;15.408;2022-10-31T09:28:44;16.50;99.90
1996;DHT22;38556;47.068;15.408;2022-10-31T09:31:12;16.50;99.90
1996;DHT22;38556;47.068;15.408;2022-10-31T09:33:39;16.50;99.90
1996;DHT22;38556;47.068;15.408;2022-10-31T09:36:08;16.80;99.90
1996;DHT22;38556;47.068;15.408;2022-10-31T09:38:36;16.70;99.90
1996;DHT22;38556;47.068;15.408;2022-10-31T09:41:08;16.80;99.90
1996;DHT22;38556;47.068;15.408;2022-10-31T09:43:46;16.90;99.90
1996;DHT22;38556;47.068;15.408;2022-10-31T09:46:23;16.90;99.90
1996;DHT22;38556;47.068;15.408;2022-10-31T09:49:01;17.00;99.90
1996;DHT22;38556;47.068;15.408;2022-10-31T09:51:36;17.00;99.90
1996;DHT22;38556;47.068;15.408;2022-10-31T09:54:08;17.20;99.90
1996;DHT22;38556;47.068;15.408;2022-10-31T09:56:38;17.30;99.90
1996;DHT22;38556;47.068;15.408;2022-10-31T09:59:11;17.30;99.90
1996;DHT22;38556;47.068;15.408;2022-10-31T10:01:46;17.30;99.90
1996;DHT22;38556;47.068;15.408;2022-10-31T10:04:29;17.40;99.90
1996;DHT22;38556;47.068;15.408;2022-10-31T10:06:58;17.40;99.90
1996;DHT22;38556;47.068;15.408;2022-10-31T10:09:27;17.40;99.90
1996;DHT22;38556;47.068;15.408;2022-10-31T10:12:02;17.40;99.90
1996;DHT22;38556;47.068;15.408;2022-10-31T10:14:44;17.40;99.90
1996;DHT22;38556;47.068;15.408;2022-10-31T10:17:22;17.60;99.90
1996;DHT22;38556;47.068;15.408;2022-10-31T10:20:08;17.70;99.90
1996;DHT22;38556;47.068;15.408;2022-10-31T10:22:42;17.80;99.90
1996;DHT22;38556;47.068;15.408;2022-10-31T10:25:15;17.80;99.90
1996;DHT22;38556;47.068;15.408;2022-10-31T10:27:52;17.80;99.90
1996;DHT22;38556;47.068;15.408;2022-10-31T10:30:27;17.90;99.90
1996;DHT22;38556;47.068;15.408;2022-10-31T10:32:59;17.90;99.90
1996;DHT22;38556;47.068;15.408;2022-10-31T10:35:30;17.90;99.90
1996;DHT22;38556;47.068;15.408;2022-10-31T10:38:05;18.10;99.90
1996;DHT22;38556;47.068;15.408;2022-10-31T10:40:37;18.10;99.90
1996;DHT22;38556;47.068;15.408;2022-10-31T10:43:21;18.20;99.90
1996;DHT22;38556;47.068;15.408;2022-10-31T10:46:07;18.20;99.90
1996;DHT22;38556;47.068;15.408;2022-10-31T10:49:03;18.10;99.90
1996;DHT22;38556;47.068;15.408;2022-10-31T10:51:36;18.20;99.90
1996;DHT22;38556;47.068;15.408;2022-10-31T10:57:27;18.20;99.90
1996;DHT22;38556;47.068;15.408;2022-10-31T11:00:00;18.20;99.90
1996;DHT22;38556;47.068;15.408;2022-10-31T11:02:32;18.30;99.90
1996;DHT22;38556;47.068;15.408;2022-10-31T11:05:01;18.30;99.90
1996;DHT22;38556;47.068;15.408;2022-10-31T11:07:37;18.40;99.90
1996;DHT22;38556;47.068;15.408;2022-10-31T11:10:10;18.50;99.90
1996;DHT22;38556;47.068;15.408;2022-10-31T11:12:42;18.60;99.90
1996;DHT22;38556;47.068;15.408;2022-10-31T11:15:18;18.70;99.90
1996;DHT22;38556;47.068;15.408;2022-10-31T11:17:50;18.70;99.90
1996;DHT22;38556;47.068;15.408;2022-10-31T11:20:28;18.80;99.90
1996;DHT22;38556;47.068;15.408;2022-10-31T11:23:03;18.80;99.90
1996;DHT22;38556;47.068;15.408;2022-10-31T11:25:31;18.90;99.90
1996;DHT22;38556;47.068;15.408;2022-10-31T11:27:59;19.00;99.90
1996;DHT22;38556;47.068;15.408;2022-10-31T11:30:27;19.10;99.90
1996;DHT22;38556;47.068;15.408;2022-10-31T11:32:56;19.10;99.90
1996;DHT22;38556;47.068;15.408;2022-10-31T11:35:25;19.00;99.90
1996;DHT22;38556;47.068;15.408;2022-10-31T11:37:54;19.10;99.90
1996;DHT22;38556;47.068;15.408;2022-10-31T11:40:26;19.20;99.90
1996;DHT22;38556;47.068;15.408;2022-10-31T11:45:29;19.50;99.90
1996;DHT22;38556;47.068;15.408;2022-10-31T11:47:59;19.50;99.90
1996;DHT22;38556;47.068;15.408;2022-10-31T11:50:33;19.50;99.90
1996;DHT22;38556;47.068;15.408;2022-10-31T11:53:03;19.60;99.90
1996;DHT22;38556;47.068;15.408;2022-10-31T11:55:32;19.60;99.90
1996;DHT22;38556;47.068;15.408;2022-10-31T11:58:00;19.80;99.90
1996;DHT22;38556;47.068;15.408;2022-10-31T12:00:30;19.80;99.90
1996;DHT22;38556;47.068;15.408;2022-10-31T12:03:13;19.90;99.90
1996;DHT22;38556;47.068;15.408;2022-10-31T12:05:44;20.00;99.90
1996;DHT22;38556;47.068;15.408;2022-10-31T12:08:13;20.10;99.90
1996;DHT22;38556;47.068;15.408;2022-10-31T12:10:47;20.20;99.90
1996;DHT22;38556;47.068;15.408;2022-10-31T12:13:30;20.10;99.90
1996;DHT22;38556;47.068;15.408;2022-10-31T12:16:02;20.30;99.90
1996;DHT22;38556;47.068;15.408;2022-10-31T12:18:47;20.40;99.90
1996;DHT22;38556;47.068;15.408;2022-10-31T12:21:32;20.50;99.90
1996;DHT22;38556;47.068;15.408;2022-10-31T12:24:09;20.60;99.90
1996;DHT22;38556;47.068;15.408;2022-10-31T12:26:45;20.60;99.90
1996;DHT22;38556;47.068;15.408;2022-10-31T12:29:29;20.60;99.90
1996;DHT22;38556;47.068;15.408;2022-10-31T12:32:13;20.70;99.90
1996;DHT22;38556;47.068;15.408;2022-10-31T12:35:08;20.90;99.90
1996;DHT22;38556;47.068;15.408;2022-10-31T12:37:48;21.10;99.90
1996;DHT22;38556;47.068;15.408;2022-10-31T12:40:29;21.10;99.90
1996;DHT22;38556;47.068;15.408;2022-10-31T12:43:09;21.30;99.90
1996;DHT22;38556;47.068;15.408;2022-10-31T12:45:49;21.30;99.90
1996;DHT22;38556;47.068;15.408;2022-10-31T12:48:32;21.30;99.90
1996;DHT22;38556;47.068;15.408;2022-10-31T12:51:09;21.50;99.90
1996;DHT22;38556;47.068;15.408;2022-10-31T12:53:51;21.60;99.90
1996;DHT22;38556;47.068;15.408;2022-10-31T12:56:31;21.70;99.90
1996;DHT22;38556;47.068;15.408;2022-10-31T12:59:08;21.60;99.90
1996;DHT22;38556;47.068;15.408;2022-10-31T13:01:41;21.80;99.90
1996;DHT22;38556;47.068;15.408;2022-10-31T13:04:16;21.90;99.90
1996;DHT22;38556;47.068;15.408;2022-10-31T13:06:49;22.10;99.90
1996;DHT22;38556;47.068;15.408;2022-10-31T13:09:20;22.20;99.90
1996;DHT22;38556;47.068;15.408;2022-10-31T13:11:53;22.40;99.90
1996;DHT22;38556;47.068;15.408;2022-10-31T13:14:27;22.40;99.90
1996;DHT22;38556;47.068;15.408;2022-10-31T13:19:27;22.70;99.90
1996;DHT22;38556;47.068;15.408;2022-10-31T13:21:59;22.70;99.90
1996;DHT22;38556;47.068;15.408;2022-10-31T13:24:33;22.80;99.90
1996;DHT22;38556;47.068;15.408;2022-10-31T13:27:03;22.70;99.90
1996;DHT22;38556;47.068;15.408;2022-10-31T13:29:41;22.90;99.90
1996;DHT22;38556;47.068;15.408;2022-10-31T13:32:10;23.20;99.90
1996;DHT22;38556;47.068;15.408;2022-10-31T13:34:41;23.30;99.90
1996;DHT22;38556;47.068;15.408;2022-10-31T13:37:17;23.50;99.90
1996;DHT22;38556;47.068;15.408;2022-10-31T13:40:09;23.40;99.90
1996;DHT22;38556;47.068;15.408;2022-10-31T13:42:49;23.20;99.90
1996;DHT22;38556;47.068;15.408;2022-10-31T13:45:21;23.30;99.90
1996;DHT22;38556;47.068;15.408;2022-10-31T13:47:56;23.60;99.90
1996;DHT22;38556;47.068;15.408;2022-10-31T13:50:25;23.70;99.90
1996;DHT22;38556;47.068;15.408;2022-10-31T13:53:10;23.80;99.90
1996;DHT22;38556;47.068;15.408;2022-10-31T13:55:40;23.90;99.90
1996;DHT22;38556;47.068;15.408;2022-10-31T13:58:22;24.10;99.90
1996;DHT22;38556;47.068;15.408;2022-10-31T14:01:11;24.20;99.90
1996;DHT22;38556;47.068;15.408;2022-10-31T14:03:42;24.20;99.70
1996;DHT22;38556;47.068;15.408;2022-10-31T14:06:11;23.90;99.90
1996;DHT22;38556;47.068;15.408;2022-10-31T14:08:42;24.00;99.70
1996;DHT22;38556;47.068;15.408;2022-10-31T14:11:21;24.10;99.90
1996;DHT22;38556;47.068;15.408;2022-10-31T14:13:50;24.30;99.90
1996;DHT22;38556;47.068;15.408;2022-10-31T14:16:20;24.30;99.70
1996;DHT22;38556;47.068;15.408;2022-10-31T14:18:50;24.30;99.40
1996;DHT22;38556;47.068;15.408;2022-10-31T14:21:28;24.40;99.50
1996;DHT22;38556;47.068;15.408;2022-10-31T14:23:57;24.40;99.40
1996;DHT22;38556;47.068;15.408;2022-10-31T14:26:34;24.30;98.80
1996;DHT22;38556;47.068;15.408;2022-10-31T14:29:24;24.30;99.10
1996;DHT22;38556;47.068;15.408;2022-10-31T14:32:01;25.70;99.60
1996;DHT22;38556;47.068;15.408;2022-10-31T14:34:34;24.30;99.00
1996;DHT22;38556;47.068;15.408;2022-10-31T14:37:16;24.10;98.50
1996;DHT22;38556;47.068;15.408;2022-10-31T14:39:58;24.20;98.50
1996;DHT22;38556;47.068;15.408;2022-10-31T14:42:46;24.20;98.70
1996;DHT22;38556;47.068;15.408;2022-10-31T14:45:34;24.70;98.50
1996;DHT22;38556;47.068;15.408;2022-10-31T14:48:15;25.90;96.70
1996;DHT22;38556;47.068;15.408;2022-10-31T14:50:49;26.20;96.00
1996;DHT22;38556;47.068;15.408;2022-10-31T14:53:22;28.20;96.80
1996;DHT22;38556;47.068;15.408;2022-10-31T14:55:53;27.10;95.40
1996;DHT22;38556;47.068;15.408;2022-10-31T14:58:23;27.50;94.20
1996;DHT22;38556;47.068;15.408;2022-10-31T15:00:54;27.60;94.30
1996;DHT22;38556;47.068;15.408;2022-10-31T15:03:27;27.80;94.00
1996;DHT22;38556;47.068;15.408;2022-10-31T15:06:05;28.00;93.40
1996;DHT22;38556;47.068;15.408;2022-10-31T15:08:39;28.10;93.20
1996;DHT22;38556;47.068;15.408;2022-10-31T15:11:13;28.10;93.30
1996;DHT22;38556;47.068;15.408;2022-10-31T15:13:42;28.00;93.00
1996;DHT22;38556;47.068;15.408;2022-10-31T15:16:11;27.50;93.00
1996;DHT22;38556;47.068;15.408;2022-10-31T15:18:47;26.40;93.40
1996;DHT22;38556;47.068;15.408;2022-10-31T15:21:15;25.80;94.10
1996;DHT22;38556;47.068;15.408;2022-10-31T15:23:44;25.30;95.00
1996;DHT22;38556;47.068;15.408;2022-10-31T15:26:17;24.70;95.10
1996;DHT22;38556;47.068;15.408;2022-10-31T15:28:46;23.50;96.20
1996;DHT22;38556;47.068;15.408;2022-10-31T15:31:15;23.00;97.20
1996;DHT22;38556;47.068;15.408;2022-10-31T15:33:47;22.80;97.60
1996;DHT22;38556;47.068;15.408;2022-10-31T15:36:20;22.40;98.10
1996;DHT22;38556;47.068;15.408;2022-10-31T15:38:49;22.00;98.40
1996;DHT22;38556;47.068;15.408;2022-10-31T15:41:26;21.90;98.80
1996;DHT22;38556;47.068;15.408;2022-10-31T15:43:59;21.40;99.50
1996;DHT22;38556;47.068;15.408;2022-10-31T15:46:26;21.10;99.90
1996;DHT22;38556;47.068;15.408;2022-10-31T15:48:54;20.90;99.90
1996;DHT22;38556;47.068;15.408;2022-10-31T15:51:27;20.70;99.90
1996;DHT22;38556;47.068;15.408;2022-10-31T15:53:55;20.40;99.90
1996;DHT22;38556;47.068;15.408;2022-10-31T15:56:26;20.20;99.90
1996;DHT22;38556;47.068;15.408;2022-10-31T15:58:57;19.90;99.90
1996;DHT22;38556;47.068;15.408;2022-10-31T16:01:26;19.80;99.90
1996;DHT22;38556;47.068;15.408;2022-10-31T16:04:03;19.20;99.90
1996;DHT22;38556;47.068;15.408;2022-10-31T16:06:32;19.10;99.90
1996;DHT22;38556;47.068;15.408;2022-10-31T16:09:00;19.00;99.90
1996;DHT22;38556;47.068;15.408;2022-10-31T16:11:34;19.10;99.90
1996;DHT22;38556;47.068;15.408;2022-10-31T16:14:05;19.10;99.90
1996;DHT22;38556;47.068;15.408;2022-10-31T16:16:42;19.10;99.90
1996;DHT22;38556;47.068;15.408;2022-10-31T16:19:16;19.10;99.90
1996;DHT22;38556;47.068;15.408;2022-10-31T16:21:44;19.00;99.90
1996;DHT22;38556;47.068;15.408;2022-10-31T16:24:17;18.80;99.90